sensor_id;sensor_type;location;lat;lon;timestamp;temperature;humidity
59881;DHT22;45751;51.380;10.326;2023-01-08T00:02:25;6.90;99.70
59881;DHT22;45751;51.380;10.326;2023-01-08T00:04:52;6.90;99.70
59881;DHT22;45751;51.380;10.326;2023-01-08T00:07:19;6.90;99.80
59881;DHT22;45751;51.380;10.326;2023-01-08T00:09:46;6.90;99.80
59881;DHT22;45751;51.380;10.326;2023-01-08T00:12:15;6.90;99.70
59881;DHT22;45751;51.380;10.326;2023-01-08T00:14:42;6.90;99.60
59881;DHT22;45751;51.380;10.326;2023-01-08T00:17:09;7.00;99.60
59881;DHT22;45751;51.380;10.326;2023-01-08T00:19:36;7.00;99.60
59881;DHT22;45751;51.380;10.326;2023-01-08T00:22:03;7.00;99.50
59881;DHT22;45751;51.380;10.326;2023-01-08T00:24:29;7.00;99.50
59881;DHT22;45751;51.380;10.326;2023-01-08T00:26:56;7.00;99.60
59881;DHT22;45751;51.380;10.326;2023-01-08T00:29:23;7.00;99.60
59881;DHT22;45751;51.380;10.326;2023-01-08T00:31:51;7.00;99.50
59881;DHT22;45751;51.380;10.326;2023-01-08T00:34:18;7.10;99.50
59881;DHT22;45751;51.380;10.326;2023-01-08T00:36:44;7.10;99.50
59881;DHT22;45751;51.380;10.326;2023-01-08T00:39:11;7.10;99.40
59881;DHT22;45751;51.380;10.326;2023-01-08T00:41:38;7.10;99.30
59881;DHT22;45751;51.380;10.326;2023-01-08T00:44:10;7.10;99.20
59881;DHT22;45751;51.380;10.326;2023-01-08T00:46:36;7.20;99.10
59881;DHT22;45751;51.380;10.326;2023-01-08T00:49:03;7.20;99.00
59881;DHT22;45751;51.380;10.326;2023-01-08T00:51:30;7.30;99.00
59881;DHT22;45751;51.380;10.326;2023-01-08T00:53:57;7.30;98.90
59881;DHT22;45751;51.380;10.326;2023-01-08T00:56:24;7.20;98.90
59881;DHT22;45751;51.380;10.326;2023-01-08T00:58:51;7.30;98.90
59881;DHT22;45751;51.380;10.326;2023-01-08T01:01:18;7.30;99.00
59881;DHT22;45751;51.380;10.326;2023-01-08T01:03:45;7.30;99.00
59881;DHT22;45751;51.380;10.326;2023-01-08T01:06:12;7.40;98.90
59881;DHT22;45751;51.380;10.326;2023-01-08T01:08:40;7.40;98.90
59881;DHT22;45751;51.380;10.326;2023-01-08T01:11:08;7.40;98.90
59881;DHT22;45751;51.380;10.326;2023-01-08T01:13:35;7.40;98.80
59881;DHT22;45751;51.380;10.326;2023-01-08T01:16:02;7.40;98.80
59881;DHT22;45751;51.380;10.326;2023-01-08T01:18:30;7.50;98.80
59881;DHT22;45751;51.380;10.326;2023-01-08T01:20:57;7.50;98.80
59881;DHT22;45751;51.380;10.326;2023-01-08T01:23:24;7.50;98.80
59881;DHT22;45751;51.380;10.326;2023-01-08T01:25:51;7.50;98.90
59881;DHT22;45751;51.380;10.326;2023-01-08T01:28:20;7.50;99.00
59881;DHT22;45751;51.380;10.326;2023-01-08T01:30:53;7.50;99.10
59881;DHT22;45751;51.380;10.326;2023-01-08T01:33:21;7.50;99.60
59881;DHT22;45751;51.380;10.326;2023-01-08T01:35:48;7.60;99.30
59881;DHT22;45751;51.380;10.326;2023-01-08T01:38:15;7.50;99.40
59881;DHT22;45751;51.380;10.326;2023-01-08T01:40:42;7.60;99.40
59881;DHT22;45751;51.380;10.326;2023-01-08T01:43:12;7.60;99.40
59881;DHT22;45751;51.380;10.326;2023-01-08T01:45:41;7.60;99.30
59881;DHT22;45751;51.380;10.326;2023-01-08T01:48:10;7.70;99.20
59881;DHT22;45751;51.380;10.326;2023-01-08T01:50:42;7.70;99.10
59881;DHT22;45751;51.380;10.326;2023-01-08T01:53:36;7.70;98.90
59881;DHT22;45751;51.380;10.326;2023-01-08T01:56:03;7.70;98.70
59881;DHT22;45751;51.380;10.326;2023-01-08T01:58:31;7.70;98.70
59881;DHT22;45751;51.380;10.326;2023-01-08T02:01:00;7.70;98.60
59881;DHT22;45751;51.380;10.326;2023-01-08T02:03:31;7.80;98.70
59881;DHT22;45751;51.380;10.326;2023-01-08T02:11:09;7.80;98.80
59881;DHT22;45751;51.380;10.326;2023-01-08T02:13:45;7.80;99.00
59881;DHT22;45751;51.380;10.326;2023-01-08T02:16:25;7.80;99.10
59881;DHT22;45751;51.380;10.326;2023-01-08T02:19:03;7.80;99.20
59881;DHT22;45751;51.380;10.326;2023-01-08T02:26:52;7.80;99.70
59881;DHT22;45751;51.380;10.326;2023-01-08T02:29:24;7.70;99.80
59881;DHT22;45751;51.380;10.326;2023-01-08T02:31:51;7.80;99.90
59881;DHT22;45751;51.380;10.326;2023-01-08T02:34:18;7.90;99.90
59881;DHT22;45751;51.380;10.326;2023-01-08T02:36:49;7.80;99.90
59881;DHT22;45751;51.380;10.326;2023-01-08T02:39:37;7.80;99.90
59881;DHT22;45751;51.380;10.326;2023-01-08T02:45:16;7.90;99.90
59881;DHT22;45751;51.380;10.326;2023-01-08T02:47:53;7.90;99.90
59881;DHT22;45751;51.380;10.326;2023-01-08T02:50:43;7.90;99.90
59881;DHT22;45751;51.380;10.326;2023-01-08T02:55:47;7.90;99.90
59881;DHT22;45751;51.380;10.326;2023-01-08T02:58:15;7.90;99.90
59881;DHT22;45751;51.380;10.326;2023-01-08T03:00:43;7.90;99.90
59881;DHT22;45751;51.380;10.326;2023-01-08T03:03:18;8.00;99.90
59881;DHT22;45751;51.380;10.326;2023-01-08T03:05:54;8.00;99.90
59881;DHT22;45751;51.380;10.326;2023-01-08T03:08:22;7.90;99.90
59881;DHT22;45751;51.380;10.326;2023-01-08T03:11:16;7.90;99.90
59881;DHT22;45751;51.380;10.326;2023-01-08T03:13:49;7.90;99.90
59881;DHT22;45751;51.380;10.326;2023-01-08T03:16:22;8.00;99.90
59881;DHT22;45751;51.380;10.326;2023-01-08T03:19:00;8.00;99.90
59881;DHT22;45751;51.380;10.326;2023-01-08T03:21:29;8.00;99.90
59881;DHT22;45751;51.380;10.326;2023-01-08T03:23:57;7.90;99.90
59881;DHT22;45751;51.380;10.326;2023-01-08T03:26:25;8.00;99.90
59881;DHT22;45751;51.380;10.326;2023-01-08T03:28:54;8.00;99.90
59881;DHT22;45751;51.380;10.326;2023-01-08T03:31:24;8.00;99.90
59881;DHT22;45751;51.380;10.326;2023-01-08T03:33:53;8.00;99.90
59881;DHT22;45751;51.380;10.326;2023-01-08T03:36:24;8.00;99.90
59881;DHT22;45751;51.380;10.326;2023-01-08T03:38:58;8.00;99.90
59881;DHT22;45751;51.380;10.326;2023-01-08T03:41:30;8.00;99.90
59881;DHT22;45751;51.380;10.326;2023-01-08T03:43:58;8.00;99.90
59881;DHT22;45751;51.380;10.326;2023-01-08T03:46:31;7.90;99.90
59881;DHT22;45751;51.380;10.326;2023-01-08T03:49:00;8.00;99.90
59881;DHT22;45751;51.380;10.326;2023-01-08T03:51:27;8.00;99.90
59881;DHT22;45751;51.380;10.326;2023-01-08T03:53:57;7.90;99.90
59881;DHT22;45751;51.380;10.326;2023-01-08T03:56:24;7.90;99.90
59881;DHT22;45751;51.380;10.326;2023-01-08T03:58:51;7.90;99.90
59881;DHT22;45751;51.380;10.326;2023-01-08T04:01:18;7.80;99.90
59881;DHT22;45751;51.380;10.326;2023-01-08T04:03:45;7.90;99.90
59881;DHT22;45751;51.380;10.326;2023-01-08T04:06:12;7.80;99.90
59881;DHT22;45751;51.380;10.326;2023-01-08T04:08:38;7.80;99.90
59881;DHT22;45751;51.380;10.326;2023-01-08T04:11:05;7.80;99.90
59881;DHT22;45751;51.380;10.326;2023-01-08T04:13:32;7.90;99.90
59881;DHT22;45751;51.380;10.326;2023-01-08T04:15:59;7.80;99.90
59881;DHT22;45751;51.380;10.326;2023-01-08T04:18:26;7.80;99.90
59881;DHT22;45751;51.380;10.326;2023-01-08T04:20:53;7.90;99.90
59881;DHT22;45751;51.380;10.326;2023-01-08T04:23:19;7.90;99.90
59881;DHT22;45751;51.380;10.326;2023-01-08T04:25:46;7.80;99.90
59881;DHT22;45751;51.380;10.326;2023-01-08T04:28:13;7.90;99.90
59881;DHT22;45751;51.380;10.326;2023-01-08T04:30:40;7.90;99.90
59881;DHT22;45751;51.380;10.326;2023-01-08T04:33:07;7.90;99.90
59881;DHT22;45751;51.380;10.326;2023-01-08T04:35:34;7.90;99.90
59881;DHT22;45751;51.380;10.326;2023-01-08T04:38:01;7.90;99.90
59881;DHT22;45751;51.380;10.326;2023-01-08T04:40:27;7.90;99.90
59881;DHT22;45751;51.380;10.326;2023-01-08T04:42:54;7.90;99.90
59881;DHT22;45751;51.380;10.326;2023-01-08T04:45:21;7.90;99.90
59881;DHT22;45751;51.380;10.326;2023-01-08T04:47:52;7.90;99.90
59881;DHT22;45751;51.380;10.326;2023-01-08T04:50:20;7.80;99.90
59881;DHT22;45751;51.380;10.326;2023-01-08T04:52:47;7.80;99.90
59881;DHT22;45751;51.380;10.326;2023-01-08T04:55:14;7.80;99.90
59881;DHT22;45751;51.380;10.326;2023-01-08T04:57:41;7.90;99.90
59881;DHT22;45751;51.380;10.326;2023-01-08T05:00:08;7.90;99.90
59881;DHT22;45751;51.380;10.326;2023-01-08T05:02:38;7.90;99.90
59881;DHT22;45751;51.380;10.326;2023-01-08T05:05:06;7.80;99.90
59881;DHT22;45751;51.380;10.326;2023-01-08T05:07:33;7.90;99.90
59881;DHT22;45751;51.380;10.326;2023-01-08T05:10:00;7.90;99.90
59881;DHT22;45751;51.380;10.326;2023-01-08T05:12:26;7.90;99.90
59881;DHT22;45751;51.380;10.326;2023-01-08T05:14:53;7.90;99.90
59881;DHT22;45751;51.380;10.326;2023-01-08T05:17:20;7.90;99.90
59881;DHT22;45751;51.380;10.326;2023-01-08T05:19:47;7.90;99.90
59881;DHT22;45751;51.380;10.326;2023-01-08T05:22:14;7.80;99.90
59881;DHT22;45751;51.380;10.326;2023-01-08T05:24:40;7.90;99.90
59881;DHT22;45751;51.380;10.326;2023-01-08T05:27:07;7.90;99.90
59881;DHT22;45751;51.380;10.326;2023-01-08T05:29:34;7.90;99.90
59881;DHT22;45751;51.380;10.326;2023-01-08T05:32:01;7.90;99.90
59881;DHT22;45751;51.380;10.326;2023-01-08T05:34:28;7.80;99.90
59881;DHT22;45751;51.380;10.326;2023-01-08T05:36:55;7.80;99.90
59881;DHT22;45751;51.380;10.326;2023-01-08T05:39:21;7.90;99.90
59881;DHT22;45751;51.380;10.326;2023-01-08T05:41:48;7.80;99.90
59881;DHT22;45751;51.380;10.326;2023-01-08T05:44:16;7.80;99.90
59881;DHT22;45751;51.380;10.326;2023-01-08T05:46:43;7.80;99.90
59881;DHT22;45751;51.380;10.326;2023-01-08T05:49:10;7.80;99.90
59881;DHT22;45751;51.380;10.326;2023-01-08T05:51:37;7.80;99.90
59881;DHT22;45751;51.380;10.326;2023-01-08T05:54:04;7.80;99.90
59881;DHT22;45751;51.380;10.326;2023-01-08T05:56:31;7.70;99.90
59881;DHT22;45751;51.380;10.326;2023-01-08T05:58:58;7.70;99.90
59881;DHT22;45751;51.380;10.326;2023-01-08T06:01:24;7.70;99.90
59881;DHT22;45751;51.380;10.326;2023-01-08T06:03:54;7.70;99.90
59881;DHT22;45751;51.380;10.326;2023-01-08T06:06:22;7.60;99.90
59881;DHT22;45751;51.380;10.326;2023-01-08T06:08:48;7.60;99.90
59881;DHT22;45751;51.380;10.326;2023-01-08T06:11:15;7.60;99.90
59881;DHT22;45751;51.380;10.326;2023-01-08T06:13:43;7.50;99.90
59881;DHT22;45751;51.380;10.326;2023-01-08T06:16:10;7.50;99.90
59881;DHT22;45751;51.380;10.326;2023-01-08T06:18:38;7.50;99.90
59881;DHT22;45751;51.380;10.326;2023-01-08T06:21:05;7.40;99.90
59881;DHT22;45751;51.380;10.326;2023-01-08T06:23:32;7.30;99.90
59881;DHT22;45751;51.380;10.326;2023-01-08T06:26:00;7.30;99.90
59881;DHT22;45751;51.380;10.326;2023-01-08T06:28:27;7.30;99.90
59881;DHT22;45751;51.380;10.326;2023-01-08T06:30:56;7.30;99.90
59881;DHT22;45751;51.380;10.326;2023-01-08T06:33:24;7.30;99.90
59881;DHT22;45751;51.380;10.326;2023-01-08T06:35:51;7.20;99.90
59881;DHT22;45751;51.380;10.326;2023-01-08T06:38:18;7.20;99.90
59881;DHT22;45751;51.380;10.326;2023-01-08T06:40:46;7.20;99.90
59881;DHT22;45751;51.380;10.326;2023-01-08T06:43:13;7.20;99.90
59881;DHT22;45751;51.380;10.326;2023-01-08T06:45:40;7.20;99.90
59881;DHT22;45751;51.380;10.326;2023-01-08T06:48:07;7.10;99.90
59881;DHT22;45751;51.380;10.326;2023-01-08T06:50:34;7.10;99.90
59881;DHT22;45751;51.380;10.326;2023-01-08T06:53:01;7.10;99.90
59881;DHT22;45751;51.380;10.326;2023-01-08T06:55:27;7.10;99.90
59881;DHT22;45751;51.380;10.326;2023-01-08T06:57:57;7.10;99.90
59881;DHT22;45751;51.380;10.326;2023-01-08T07:00:25;7.10;99.90
59881;DHT22;45751;51.380;10.326;2023-01-08T07:02:53;7.10;99.90
59881;DHT22;45751;51.380;10.326;2023-01-08T07:05:21;7.10;99.90
59881;DHT22;45751;51.380;10.326;2023-01-08T07:07:49;7.00;99.90
59881;DHT22;45751;51.380;10.326;2023-01-08T07:10:16;7.00;99.90
59881;DHT22;45751;51.380;10.326;2023-01-08T07:12:46;7.00;99.90
59881;DHT22;45751;51.380;10.326;2023-01-08T07:15:13;7.00;99.90
59881;DHT22;45751;51.380;10.326;2023-01-08T07:17:40;7.00;99.90
59881;DHT22;45751;51.380;10.326;2023-01-08T07:20:07;7.00;99.90
59881;DHT22;45751;51.380;10.326;2023-01-08T07:22:35;7.00;99.90
59881;DHT22;45751;51.380;10.326;2023-01-08T07:25:02;6.90;99.90
59881;DHT22;45751;51.380;10.326;2023-01-08T07:27:30;7.00;99.90
59881;DHT22;45751;51.380;10.326;2023-01-08T07:29:57;7.00;99.90
59881;DHT22;45751;51.380;10.326;2023-01-08T07:32:24;7.00;99.90
59881;DHT22;45751;51.380;10.326;2023-01-08T07:34:51;6.90;99.90
59881;DHT22;45751;51.380;10.326;2023-01-08T07:37:20;6.90;99.90
59881;DHT22;45751;51.380;10.326;2023-01-08T07:39:47;7.00;99.90
59881;DHT22;45751;51.380;10.326;2023-01-08T07:42:13;6.90;99.90
59881;DHT22;45751;51.380;10.326;2023-01-08T07:44:40;6.90;99.90
59881;DHT22;45751;51.380;10.326;2023-01-08T07:47:07;6.90;99.90
59881;DHT22;45751;51.380;10.326;2023-01-08T07:49:34;6.90;99.90
59881;DHT22;45751;51.380;10.326;2023-01-08T07:52:01;6.90;99.90
59881;DHT22;45751;51.380;10.326;2023-01-08T07:54:28;6.90;99.90
59881;DHT22;45751;51.380;10.326;2023-01-08T07:56:55;6.90;99.90
59881;DHT22;45751;51.380;10.326;2023-01-08T07:59:21;6.90;99.90
59881;DHT22;45751;51.380;10.326;2023-01-08T08:01:48;6.90;99.90
59881;DHT22;45751;51.380;10.326;2023-01-08T08:04:15;6.90;99.90
59881;DHT22;45751;51.380;10.326;2023-01-08T08:06:42;6.90;99.90
59881;DHT22;45751;51.380;10.326;2023-01-08T08:09:09;6.90;99.90
59881;DHT22;45751;51.380;10.326;2023-01-08T08:11:36;6.90;99.90
59881;DHT22;45751;51.380;10.326;2023-01-08T08:14:04;6.90;99.90
59881;DHT22;45751;51.380;10.326;2023-01-08T08:16:31;6.90;99.90
59881;DHT22;45751;51.380;10.326;2023-01-08T08:18:58;6.90;99.90
59881;DHT22;45751;51.380;10.326;2023-01-08T08:21:25;6.90;99.90
59881;DHT22;45751;51.380;10.326;2023-01-08T08:23:52;6.90;99.90
59881;DHT22;45751;51.380;10.326;2023-01-08T08:26:19;7.00;99.90
59881;DHT22;45751;51.380;10.326;2023-01-08T08:28:46;7.00;99.90
59881;DHT22;45751;51.380;10.326;2023-01-08T08:31:12;7.00;99.90
59881;DHT22;45751;51.380;10.326;2023-01-08T08:33:39;6.90;99.90
59881;DHT22;45751;51.380;10.326;2023-01-08T08:36:07;7.00;99.90
59881;DHT22;45751;51.380;10.326;2023-01-08T08:38:36;6.90;99.90
59881;DHT22;45751;51.380;10.326;2023-01-08T08:41:03;6.90;99.90
59881;DHT22;45751;51.380;10.326;2023-01-08T08:43:30;7.00;99.90
59881;DHT22;45751;51.380;10.326;2023-01-08T08:45:57;7.00;99.90
59881;DHT22;45751;51.380;10.326;2023-01-08T08:48:24;7.00;99.90
59881;DHT22;45751;51.380;10.326;2023-01-08T08:50:51;7.00;99.90
59881;DHT22;45751;51.380;10.326;2023-01-08T08:53:18;7.00;99.90
59881;DHT22;45751;51.380;10.326;2023-01-08T08:55:44;7.00;99.90
59881;DHT22;45751;51.380;10.326;2023-01-08T08:58:12;6.90;99.90
59881;DHT22;45751;51.380;10.326;2023-01-08T09:00:40;7.00;99.90
59881;DHT22;45751;51.380;10.326;2023-01-08T09:03:13;6.90;99.90
59881;DHT22;45751;51.380;10.326;2023-01-08T09:05:41;6.90;99.90
59881;DHT22;45751;51.380;10.326;2023-01-08T09:08:09;7.00;99.90
59881;DHT22;45751;51.380;10.326;2023-01-08T09:10:37;7.00;99.90
59881;DHT22;45751;51.380;10.326;2023-01-08T09:13:04;7.00;99.90
59881;DHT22;45751;51.380;10.326;2023-01-08T09:15:31;6.90;99.90
59881;DHT22;45751;51.380;10.326;2023-01-08T09:17:58;7.00;99.90
59881;DHT22;45751;51.380;10.326;2023-01-08T09:20:26;7.00;99.90
59881;DHT22;45751;51.380;10.326;2023-01-08T09:22:53;7.00;99.90
59881;DHT22;45751;51.380;10.326;2023-01-08T09:25:23;7.00;99.90
59881;DHT22;45751;51.380;10.326;2023-01-08T09:27:58;7.10;99.90
59881;DHT22;45751;51.380;10.326;2023-01-08T09:30:25;7.10;99.90
59881;DHT22;45751;51.380;10.326;2023-01-08T09:32:58;7.10;99.90
59881;DHT22;45751;51.380;10.326;2023-01-08T09:35:29;7.10;99.90
59881;DHT22;45751;51.380;10.326;2023-01-08T09:37:56;7.20;99.90
59881;DHT22;45751;51.380;10.326;2023-01-08T09:40:33;7.20;99.90
59881;DHT22;45751;51.380;10.326;2023-01-08T09:43:02;7.20;99.90
59881;DHT22;45751;51.380;10.326;2023-01-08T09:45:34;7.20;99.90
59881;DHT22;45751;51.380;10.326;2023-01-08T09:48:06;7.20;99.90
59881;DHT22;45751;51.380;10.326;2023-01-08T09:50:33;7.30;99.90
59881;DHT22;45751;51.380;10.326;2023-01-08T09:53:01;7.30;99.90
59881;DHT22;45751;51.380;10.326;2023-01-08T09:55:32;7.30;99.90
59881;DHT22;45751;51.380;10.326;2023-01-08T09:57:59;7.30;99.90
59881;DHT22;45751;51.380;10.326;2023-01-08T10:00:31;7.40;99.90
59881;DHT22;45751;51.380;10.326;2023-01-08T10:02:59;7.40;99.90
59881;DHT22;45751;51.380;10.326;2023-01-08T10:05:26;7.40;99.90
59881;DHT22;45751;51.380;10.326;2023-01-08T10:07:54;7.40;99.90
59881;DHT22;45751;51.380;10.326;2023-01-08T10:10:24;7.40;99.90
59881;DHT22;45751;51.380;10.326;2023-01-08T10:12:53;7.40;99.90
59881;DHT22;45751;51.380;10.326;2023-01-08T10:15:22;7.40;99.90
59881;DHT22;45751;51.380;10.326;2023-01-08T10:20:48;7.40;99.90
59881;DHT22;45751;51.380;10.326;2023-01-08T10:23:17;7.40;99.90
59881;DHT22;45751;51.380;10.326;2023-01-08T10:25:56;7.40;99.90
59881;DHT22;45751;51.380;10.326;2023-01-08T10:28:31;7.40;99.90
59881;DHT22;45751;51.380;10.326;2023-01-08T10:31:07;7.40;99.90
59881;DHT22;45751;51.380;10.326;2023-01-08T10:33:42;7.40;99.90
59881;DHT22;45751;51.380;10.326;2023-01-08T10:36:13;7.40;99.90
59881;DHT22;45751;51.380;10.326;2023-01-08T10:38:41;7.50;99.90
59881;DHT22;45751;51.380;10.326;2023-01-08T10:41:14;7.40;99.90
59881;DHT22;45751;51.380;10.326;2023-01-08T10:46:27;7.40;99.90
59881;DHT22;45751;51.380;10.326;2023-01-08T10:48:59;7.60;99.90
59881;DHT22;45751;51.380;10.326;2023-01-08T10:51:28;7.50;99.90
59881;DHT22;45751;51.380;10.326;2023-01-08T10:53:59;7.50;99.90
59881;DHT22;45751;51.380;10.326;2023-01-08T10:56:29;7.50;99.90
59881;DHT22;45751;51.380;10.326;2023-01-08T10:58:56;7.50;99.90
59881;DHT22;45751;51.380;10.326;2023-01-08T11:01:25;7.50;99.90
59881;DHT22;45751;51.380;10.326;2023-01-08T11:04:01;7.50;99.90
59881;DHT22;45751;51.380;10.326;2023-01-08T11:06:31;7.50;99.90
59881;DHT22;45751;51.380;10.326;2023-01-08T11:09:01;7.50;99.90
59881;DHT22;45751;51.380;10.326;2023-01-08T11:11:36;7.50;99.90
59881;DHT22;45751;51.380;10.326;2023-01-08T11:16:52;7.50;99.90
59881;DHT22;45751;51.380;10.326;2023-01-08T11:19:29;7.50;99.90
59881;DHT22;45751;51.380;10.326;2023-01-08T11:22:04;7.50;99.90
59881;DHT22;45751;51.380;10.326;2023-01-08T11:24:36;7.50;99.90
59881;DHT22;45751;51.380;10.326;2023-01-08T11:27:30;7.50;99.90
59881;DHT22;45751;51.380;10.326;2023-01-08T11:30:16;7.50;99.90
59881;DHT22;45751;51.380;10.326;2023-01-08T11:33:11;7.50;99.90
59881;DHT22;45751;51.380;10.326;2023-01-08T11:35:43;7.50;99.90
59881;DHT22;45751;51.380;10.326;2023-01-08T11:38:12;7.40;99.90
59881;DHT22;45751;51.380;10.326;2023-01-08T11:40:54;7.50;99.90
59881;DHT22;45751;51.380;10.326;2023-01-08T11:43:45;7.50;99.90
59881;DHT22;45751;51.380;10.326;2023-01-08T11:49:24;7.50;99.90
59881;DHT22;45751;51.380;10.326;2023-01-08T12:11:17;7.60;99.90
59881;DHT22;45751;51.380;10.326;2023-01-08T12:22:37;7.60;99.90
59881;DHT22;45751;51.380;10.326;2023-01-08T12:25:31;7.60;99.90
59881;DHT22;45751;51.380;10.326;2023-01-08T12:34:05;7.70;99.90
59881;DHT22;45751;51.380;10.326;2023-01-08T12:36:41;7.70;99.90
59881;DHT22;45751;51.380;10.326;2023-01-08T12:39:31;7.70;99.90
59881;DHT22;45751;51.380;10.326;2023-01-08T12:42:09;7.70;99.90
59881;DHT22;45751;51.380;10.326;2023-01-08T12:44:37;7.70;99.90
59881;DHT22;45751;51.380;10.326;2023-01-08T12:47:07;7.70;99.90
59881;DHT22;45751;51.380;10.326;2023-01-08T12:49:46;7.70;99.90
59881;DHT22;45751;51.380;10.326;2023-01-08T12:52:25;7.70;99.90
59881;DHT22;45751;51.380;10.326;2023-01-08T12:55:01;7.80;99.90
59881;DHT22;45751;51.380;10.326;2023-01-08T12:57:36;7.80;99.90
59881;DHT22;45751;51.380;10.326;2023-01-08T13:05:35;7.80;99.90
59881;DHT22;45751;51.380;10.326;2023-01-08T13:08:05;7.80;99.90
59881;DHT22;45751;51.380;10.326;2023-01-08T13:10:39;7.80;99.90
59881;DHT22;45751;51.380;10.326;2023-01-08T13:13:22;7.80;99.90
59881;DHT22;45751;51.380;10.326;2023-01-08T13:18:55;7.80;99.90
59881;DHT22;45751;51.380;10.326;2023-01-08T13:21:38;7.80;99.90
59881;DHT22;45751;51.380;10.326;2023-01-08T13:24:30;7.90;99.90
59881;DHT22;45751;51.380;10.326;2023-01-08T13:29:56;8.00;99.90
59881;DHT22;45751;51.380;10.326;2023-01-08T13:32:43;8.00;99.90
59881;DHT22;45751;51.380;10.326;2023-01-08T13:37:47;8.00;99.90
59881;DHT22;45751;51.380;10.326;2023-01-08T13:45:42;8.00;99.90
59881;DHT22;45751;51.380;10.326;2023-01-08T13:48:27;8.00;99.90
59881;DHT22;45751;51.380;10.326;2023-01-08T13:50:58;8.00;99.90
59881;DHT22;45751;51.380;10.326;2023-01-08T13:53:25;8.00;99.90
59881;DHT22;45751;51.380;10.326;2023-01-08T13:55:59;8.00;99.90
59881;DHT22;45751;51.380;10.326;2023-01-08T13:58:32;8.00;99.90
59881;DHT22;45751;51.380;10.326;2023-01-08T14:01:03;8.10;99.90
59881;DHT22;45751;51.380;10.326;2023-01-08T14:06:16;8.00;99.90
59881;DHT22;45751;51.380;10.326;2023-01-08T14:08:56;8.00;99.90
59881;DHT22;45751;51.380;10.326;2023-01-08T14:13:55;8.00;99.90
59881;DHT22;45751;51.380;10.326;2023-01-08T14:16:23;8.00;99.90
59881;DHT22;45751;51.380;10.326;2023-01-08T14:18:51;8.00;99.90
59881;DHT22;45751;51.380;10.326;2023-01-08T14:21:21;8.00;99.90
59881;DHT22;45751;51.380;10.326;2023-01-08T14:23:49;8.00;99.90
59881;DHT22;45751;51.380;10.326;2023-01-08T14:26:35;8.00;99.90
59881;DHT22;45751;51.380;10.326;2023-01-08T14:29:09;8.00;99.90
59881;DHT22;45751;51.380;10.326;2023-01-08T14:31:45;8.00;99.90
59881;DHT22;45751;51.380;10.326;2023-01-08T14:34:13;8.00;99.90
59881;DHT22;45751;51.380;10.326;2023-01-08T14:36:41;7.90;99.90
59881;DHT22;45751;51.380;10.326;2023-01-08T14:41:47;7.90;99.90
59881;DHT22;45751;51.380;10.326;2023-01-08T14:44:33;8.00;99.90
59881;DHT22;45751;51.380;10.326;2023-01-08T14:47:36;7.90;99.90
59881;DHT22;45751;51.380;10.326;2023-01-08T14:50:05;7.90;99.90
59881;DHT22;45751;51.380;10.326;2023-01-08T14:52:33;7.90;99.90
59881;DHT22;45751;51.380;10.326;2023-01-08T14:55:02;7.90;99.90
59881;DHT22;45751;51.380;10.326;2023-01-08T14:57:29;7.90;99.90
59881;DHT22;45751;51.380;10.326;2023-01-08T14:59:59;7.90;99.90
59881;DHT22;45751;51.380;10.326;2023-01-08T15:02:35;7.90;99.90
59881;DHT22;45751;51.380;10.326;2023-01-08T15:08:36;7.90;99.90
59881;DHT22;45751;51.380;10.326;2023-01-08T15:10:43;7.90;99.90
59881;DHT22;45751;51.380;10.326;2023-01-08T15:13:23;7.90;99.90
59881;DHT22;45751;51.380;10.326;2023-01-08T15:16:07;7.90;99.90
59881;DHT22;45751;51.380;10.326;2023-01-08T15:18:41;7.90;99.90
59881;DHT22;45751;51.380;10.326;2023-01-08T15:21:09;7.90;99.90
59881;DHT22;45751;51.380;10.326;2023-01-08T15:23:41;7.90;99.90
59881;DHT22;45751;51.380;10.326;2023-01-08T15:26:11;7.90;99.90
59881;DHT22;45751;51.380;10.326;2023-01-08T15:28:47;7.90;99.90
59881;DHT22;45751;51.380;10.326;2023-01-08T15:31:24;7.90;99.90
59881;DHT22;45751;51.380;10.326;2023-01-08T15:33:52;7.90;99.90
59881;DHT22;45751;51.380;10.326;2023-01-08T15:36:19;7.80;99.90
59881;DHT22;45751;51.380;10.326;2023-01-08T15:38:47;7.90;99.90
59881;DHT22;45751;51.380;10.326;2023-01-08T15:41:20;7.80;99.90
59881;DHT22;45751;51.380;10.326;2023-01-08T15:44:09;7.80;99.90
59881;DHT22;45751;51.380;10.326;2023-01-08T15:46:36;7.80;99.90
59881;DHT22;45751;51.380;10.326;2023-01-08T15:49:03;7.90;99.90
59881;DHT22;45751;51.380;10.326;2023-01-08T15:51:32;7.90;99.90
59881;DHT22;45751;51.380;10.326;2023-01-08T15:54:00;7.80;99.90
59881;DHT22;45751;51.380;10.326;2023-01-08T15:56:27;7.80;99.90
59881;DHT22;45751;51.380;10.326;2023-01-08T15:58:54;7.90;99.90
59881;DHT22;45751;51.380;10.326;2023-01-08T16:01:21;7.80;99.90
59881;DHT22;45751;51.380;10.326;2023-01-08T16:03:48;7.80;99.90
59881;DHT22;45751;51.380;10.326;2023-01-08T16:06:15;7.80;99.90
59881;DHT22;45751;51.380;10.326;2023-01-08T16:08:42;7.80;99.90
59881;DHT22;45751;51.380;10.326;2023-01-08T16:11:12;7.70;99.90
59881;DHT22;45751;51.380;10.326;2023-01-08T16:13:39;7.80;99.90
59881;DHT22;45751;51.380;10.326;2023-01-08T16:16:11;7.70;99.90
59881;DHT22;45751;51.380;10.326;2023-01-08T16:18:39;7.70;99.90
59881;DHT22;45751;51.380;10.326;2023-01-08T16:21:07;7.80;99.90
59881;DHT22;45751;51.380;10.326;2023-01-08T16:23:36;7.70;99.90
59881;DHT22;45751;51.380;10.326;2023-01-08T16:26:13;7.80;99.90
59881;DHT22;45751;51.380;10.326;2023-01-08T16:28:40;7.80;99.90
59881;DHT22;45751;51.380;10.326;2023-01-08T16:31:08;7.70;99.90
59881;DHT22;45751;51.380;10.326;2023-01-08T16:33:36;7.70;99.90
59881;DHT22;45751;51.380;10.326;2023-01-08T16:36:06;7.70;99.90
59881;DHT22;45751;51.380;10.326;2023-01-08T16:38:34;7.70;99.90
59881;DHT22;45751;51.380;10.326;2023-01-08T16:41:01;7.70;99.90
59881;DHT22;45751;51.380;10.326;2023-01-08T16:43:29;7.70;99.90
59881;DHT22;45751;51.380;10.326;2023-01-08T16:45:56;7.70;99.90
59881;DHT22;45751;51.380;10.326;2023-01-08T16:48:29;7.70;99.90
59881;DHT22;45751;51.380;10.326;2023-01-08T16:51:03;7.70;99.90
59881;DHT22;45751;51.380;10.326;2023-01-08T16:53:31;7.70;99.90
59881;DHT22;45751;51.380;10.326;2023-01-08T16:55:58;7.70;99.90
59881;DHT22;45751;51.380;10.326;2023-01-08T16:58:25;7.70;99.90
59881;DHT22;45751;51.380;10.326;2023-01-08T17:00:52;7.70;99.90
59881;DHT22;45751;51.380;10.326;2023-01-08T17:03:20;7.80;99.90
59881;DHT22;45751;51.380;10.326;2023-01-08T17:05:48;7.50;99.90
59881;DHT22;45751;51.380;10.326;2023-01-08T17:08:15;7.70;99.90
59881;DHT22;45751;51.380;10.326;2023-01-08T17:10:45;7.60;99.90
59881;DHT22;45751;51.380;10.326;2023-01-08T17:13:12;7.70;99.90
59881;DHT22;45751;51.380;10.326;2023-01-08T17:15:39;7.60;99.90
59881;DHT22;45751;51.380;10.326;2023-01-08T17:18:06;7.60;99.90
59881;DHT22;45751;51.380;10.326;2023-01-08T17:20:33;7.60;99.90